createdAt,value
2018-11-28T00:00:33.570Z,3.60
2018-11-28T00:03:03.910Z,3.60
2018-11-28T00:05:32.377Z,3.60
2018-11-28T00:08:01.050Z,3.60
2018-11-28T00:10:29.353Z,3.60
2018-11-28T00:12:57.682Z,3.60
2018-11-28T00:15:26.023Z,3.50
2018-11-28T00:17:54.401Z,3.60
2018-11-28T00:20:23.505Z,3.50
2018-11-28T00:22:51.823Z,3.60
2018-11-28T00:25:20.233Z,3.50
2018-11-28T00:27:48.562Z,3.50
2018-11-28T00:30:20.274Z,3.60
2018-11-28T00:32:48.601Z,3.60
2018-11-28T00:35:17.834Z,3.50
2018-11-28T00:37:46.358Z,3.50
2018-11-28T00:40:15.665Z,3.50
2018-11-28T00:42:44.086Z,3.50
2018-11-28T00:45:14.457Z,3.50
2018-11-28T00:47:42.786Z,3.50
2018-11-28T00:50:13.214Z,3.50
2018-11-28T00:52:42.222Z,3.50
2018-11-28T00:55:12.589Z,3.50
2018-11-28T00:57:40.969Z,3.50
2018-11-28T01:00:13.205Z,3.40
2018-11-28T01:02:41.595Z,3.40
2018-11-28T01:05:11.050Z,3.40
2018-11-28T01:07:39.628Z,3.40
2018-11-28T01:10:10.498Z,3.40
2018-11-28T01:12:38.882Z,3.40
2018-11-28T01:15:08.690Z,3.40
2018-11-28T01:17:37.021Z,3.40
2018-11-28T01:20:07.419Z,3.40
2018-11-28T01:22:36.047Z,3.40
2018-11-28T01:25:04.538Z,3.40
2018-11-28T01:27:32.886Z,3.50
2018-11-28T01:30:01.646Z,3.50
2018-11-28T01:32:29.942Z,3.50
2018-11-28T01:34:58.273Z,3.50
2018-11-28T01:37:26.639Z,3.50
2018-11-28T01:39:54.932Z,3.60
2018-11-28T01:42:23.262Z,3.60
2018-11-28T01:44:51.706Z,3.60
2018-11-28T01:47:21.686Z,3.60
2018-11-28T01:49:49.973Z,3.60
2018-11-28T01:52:18.290Z,3.70
2018-11-28T01:54:46.609Z,3.70
2018-11-28T01:57:14.938Z,3.70
2018-11-28T01:59:43.721Z,3.70
2018-11-28T02:02:12.106Z,3.60
2018-11-28T02:04:40.420Z,3.70
2018-11-28T02:07:09.386Z,3.70
2018-11-28T02:09:37.719Z,3.70
2018-11-28T02:12:06.050Z,3.70
2018-11-28T02:14:34.743Z,3.70
2018-11-28T02:17:03.059Z,3.70
2018-11-28T02:19:31.360Z,3.70
2018-11-28T02:22:00.322Z,3.70
2018-11-28T02:24:28.653Z,3.80
2018-11-28T02:26:56.977Z,3.80
2018-11-28T02:29:25.981Z,3.80
2018-11-28T02:31:54.302Z,3.80
2018-11-28T02:34:22.623Z,3.80
2018-11-28T02:36:51.120Z,3.80
2018-11-28T02:39:19.447Z,3.80
2018-11-28T02:41:47.755Z,3.80
2018-11-28T02:44:16.119Z,3.80
2018-11-28T02:46:44.426Z,3.80
2018-11-28T02:49:12.752Z,3.80
2018-11-28T02:51:42.523Z,3.80
2018-11-28T02:54:10.855Z,3.80
2018-11-28T02:56:39.202Z,3.80
2018-11-28T02:59:07.561Z,3.80
2018-11-28T03:01:35.981Z,3.80
2018-11-28T03:04:04.362Z,3.80
2018-11-28T03:06:33.034Z,3.80
2018-11-28T03:09:01.350Z,3.80
2018-11-28T03:11:29.690Z,3.80
2018-11-28T03:13:58.209Z,3.80
2018-11-28T03:16:26.722Z,3.80
2018-11-28T03:18:55.061Z,3.80
2018-11-28T03:21:23.734Z,3.90
2018-11-28T03:23:52.257Z,3.90
2018-11-28T03:26:20.575Z,3.90
2018-11-28T03:28:49.280Z,3.90
2018-11-28T03:31:17.739Z,3.90
2018-11-28T03:33:46.038Z,4.00
2018-11-28T03:36:14.379Z,4.00
2018-11-28T03:38:42.721Z,4.00
2018-11-28T03:41:11.043Z,4.00
2018-11-28T03:43:39.755Z,4.00
2018-11-28T03:46:08.129Z,4.00
2018-11-28T03:48:36.465Z,4.00
2018-11-28T03:51:04.986Z,4.00
2018-11-28T03:53:33.276Z,4.00
2018-11-28T03:56:01.574Z,4.00
2018-11-28T03:58:29.952Z,4.00
2018-11-28T04:00:58.404Z,4.00
2018-11-28T04:03:26.875Z,4.00
2018-11-28T04:05:55.668Z,4.00
2018-11-28T04:08:24.196Z,4.00
2018-11-28T04:10:52.622Z,4.00
2018-11-28T04:13:21.161Z,4.00
2018-11-28T04:15:49.627Z,4.00
2018-11-28T04:18:17.974Z,4.10
2018-11-28T04:20:46.698Z,4.10
2018-11-28T04:23:15.062Z,4.10
2018-11-28T04:25:44.140Z,4.10
2018-11-28T04:28:13.210Z,4.20
2018-11-28T04:30:42.878Z,4.20
2018-11-28T04:33:11.211Z,4.20
2018-11-28T04:35:39.546Z,4.20
2018-11-28T04:38:07.874Z,4.20
2018-11-28T04:40:36.254Z,4.30
2018-11-28T04:43:04.738Z,4.30
2018-11-28T04:45:33.093Z,4.30
2018-11-28T04:48:01.406Z,4.30
2018-11-28T04:50:29.721Z,4.30
2018-11-28T04:52:58.041Z,4.30
2018-11-28T04:55:26.326Z,4.30
2018-11-28T04:57:54.843Z,4.30
2018-11-28T05:00:25.521Z,4.30
2018-11-28T05:02:54.866Z,4.30
2018-11-28T05:05:23.198Z,4.30
2018-11-28T05:07:52.272Z,4.40
2018-11-28T05:10:22.754Z,4.40
2018-11-28T05:12:51.655Z,4.40
2018-11-28T05:15:20.911Z,4.40
2018-11-28T05:17:50.435Z,4.40
2018-11-28T05:20:21.590Z,4.40
2018-11-28T05:22:49.961Z,4.40
2018-11-28T05:25:19.485Z,4.40
2018-11-28T05:27:48.953Z,4.40
2018-11-28T05:30:19.206Z,4.40
2018-11-28T05:32:47.535Z,4.50
2018-11-28T05:35:16.959Z,4.50
2018-11-28T05:37:45.997Z,4.50
2018-11-28T05:40:21.389Z,4.50
2018-11-28T05:42:50.233Z,4.60
2018-11-28T05:45:18.661Z,4.60
2018-11-28T05:47:46.998Z,4.60
2018-11-28T05:50:16.450Z,4.60
2018-11-28T05:52:44.817Z,4.70
2018-11-28T05:55:13.964Z,4.70
2018-11-28T05:57:44.046Z,4.70
2018-11-28T06:00:22.042Z,4.70
2018-11-28T06:02:50.865Z,4.70
2018-11-28T06:05:19.207Z,4.70
2018-11-28T06:07:47.553Z,4.80
2018-11-28T06:10:15.876Z,4.70
2018-11-28T06:12:44.195Z,4.80
2018-11-28T06:15:12.876Z,4.80
2018-11-28T06:17:41.725Z,4.80
2018-11-28T06:20:12.065Z,4.70
2018-11-28T06:22:41.058Z,4.70
2018-11-28T06:25:15.990Z,4.70
2018-11-28T06:27:40.008Z,4.70
2018-11-28T06:30:12.593Z,4.70
2018-11-28T06:32:41.842Z,4.70
2018-11-28T06:35:10.561Z,4.70
2018-11-28T06:37:39.863Z,4.70
2018-11-28T06:40:10.358Z,4.70
2018-11-28T06:42:38.776Z,4.70
2018-11-28T06:45:11.098Z,4.80
2018-11-28T06:47:39.402Z,4.80
2018-11-28T06:50:13.694Z,4.80
2018-11-28T06:52:42.350Z,4.80
2018-11-28T06:55:13.027Z,4.80
2018-11-28T06:57:41.751Z,4.80
2018-11-28T07:00:24.762Z,4.80
2018-11-28T07:02:53.896Z,4.80
2018-11-28T07:05:23.387Z,4.80
2018-11-28T07:07:52.202Z,4.80
2018-11-28T08:05:39.545Z,4.80
2018-11-28T08:08:09.893Z,5.20
2018-11-28T08:10:38.318Z,5.20
2018-11-28T08:13:07.751Z,5.30
2018-11-28T08:15:36.073Z,5.20
2018-11-28T08:18:04.431Z,5.30
2018-11-28T08:20:33.125Z,5.30
2018-11-28T08:23:01.919Z,5.20
2018-11-28T08:25:30.392Z,5.30
2018-11-28T08:27:58.945Z,5.30
2018-11-28T08:30:28.468Z,5.30
2018-11-28T09:14:30.885Z,5.40
2018-11-28T09:17:00.425Z,5.80
2018-11-28T09:19:28.894Z,5.80
2018-11-28T09:21:57.658Z,5.80
2018-11-28T09:24:26.114Z,5.90
2018-11-28T09:27:00.286Z,5.90
2018-11-28T09:29:28.631Z,6.00
2018-11-28T09:31:57.013Z,6.00
2018-11-28T09:34:25.894Z,6.00
2018-11-28T09:36:55.006Z,6.10
2018-11-28T09:39:23.321Z,6.10
2018-11-28T09:41:52.222Z,6.20
2018-11-28T09:44:20.566Z,6.20
2018-11-28T09:46:48.866Z,6.20
2018-11-28T09:49:17.751Z,6.20
2018-11-28T09:51:45.826Z,6.20
2018-11-28T09:54:14.924Z,6.30
2018-11-28T09:56:43.810Z,6.30
2018-11-28T09:59:12.116Z,6.20
2018-11-28T10:01:40.411Z,6.30
2018-11-28T10:04:09.491Z,6.30
2018-11-28T10:30:29.137Z,6.50
2018-11-28T10:32:57.920Z,6.60
2018-11-28T10:35:26.569Z,6.60
2018-11-28T10:37:55.038Z,6.60
2018-11-28T10:40:24.854Z,6.60
2018-11-28T10:42:56.171Z,6.60
2018-11-28T10:45:25.790Z,6.60
2018-11-28T10:47:54.218Z,6.60
2018-11-28T10:50:22.749Z,6.60
2018-11-28T10:52:51.714Z,6.60
2018-11-28T10:55:20.985Z,6.60
2018-11-28T10:57:49.578Z,6.60
2018-11-28T11:00:32.253Z,6.60
2018-11-28T11:03:06.079Z,6.60
2018-11-28T11:05:39.982Z,6.60
2018-11-28T11:08:13.763Z,6.60
2018-11-28T11:10:47.746Z,6.60
2018-11-28T11:13:21.461Z,6.70
2018-11-28T11:15:56.292Z,6.70
2018-11-28T11:18:24.914Z,6.70
2018-11-28T11:20:53.422Z,6.80
2018-11-28T11:23:22.337Z,6.80
2018-11-28T11:25:51.418Z,6.80
2018-11-28T11:28:20.055Z,6.80
2018-11-28T11:30:48.537Z,6.80
2018-11-28T11:33:16.990Z,6.80
2018-11-28T11:35:45.315Z,6.80
2018-11-28T11:38:15.524Z,6.80
2018-11-28T11:40:43.886Z,6.90
2018-11-28T11:43:12.279Z,6.90
2018-11-28T11:45:41.021Z,6.90
2018-11-28T11:48:09.405Z,6.90
2018-11-28T11:50:37.717Z,6.90
2018-11-28T11:53:06.523Z,6.90
2018-11-28T11:55:35.700Z,6.90
2018-11-28T11:58:04.026Z,6.90
2018-11-28T12:00:32.844Z,7.00
2018-11-28T12:03:11.007Z,7.00
2018-11-28T12:05:40.937Z,7.00
2018-11-28T12:08:09.282Z,7.00
2018-11-28T12:10:37.590Z,7.00
2018-11-28T12:13:06.238Z,7.00
2018-11-28T12:15:35.706Z,7.10
2018-11-28T12:18:03.493Z,7.00
2018-11-28T12:20:43.410Z,7.00
2018-11-28T12:23:11.772Z,7.10
2018-11-28T12:25:40.097Z,7.10
2018-11-28T12:28:08.730Z,7.10
2018-11-28T12:30:37.494Z,7.10
2018-11-28T12:33:06.759Z,7.10
2018-11-28T12:35:35.910Z,7.10
2018-11-28T12:38:04.474Z,7.20
2018-11-28T12:40:34.722Z,7.20
2018-11-28T12:43:03.733Z,7.20
2018-11-28T12:45:32.160Z,7.20
2018-11-28T12:48:00.494Z,7.20
2018-11-28T12:50:29.712Z,7.30
2018-11-28T12:53:00.044Z,7.30
2018-11-28T12:55:28.708Z,7.30
2018-11-28T12:57:57.965Z,7.40
2018-11-28T13:00:28.537Z,7.40
2018-11-28T13:02:56.918Z,7.50
2018-11-28T13:05:26.951Z,7.50
2018-11-28T13:07:55.321Z,7.50
2018-11-28T13:10:24.886Z,7.60
2018-11-28T13:12:53.584Z,7.60
2018-11-28T13:15:50.252Z,7.60
2018-11-28T13:18:19.852Z,7.60
2018-11-28T13:20:48.182Z,7.70
2018-11-28T13:23:16.499Z,7.70
2018-11-28T13:25:45.129Z,7.80
2018-11-28T13:28:13.461Z,7.80
2018-11-28T13:30:41.870Z,7.80
2018-11-28T13:33:12.142Z,7.80
2018-11-28T13:35:40.794Z,7.80
2018-11-28T13:38:13.975Z,7.80
2018-11-28T13:40:42.847Z,7.70
2018-11-28T13:43:11.258Z,7.70
2018-11-28T13:45:41.865Z,7.70
2018-11-28T13:48:10.310Z,7.70
2018-11-28T13:50:39.025Z,7.70
2018-11-28T13:53:09.386Z,7.80
2018-11-28T13:55:41.759Z,7.70
2018-11-28T13:58:08.070Z,7.80
2018-11-28T14:00:36.560Z,7.80
2018-11-28T14:03:04.910Z,7.80
2018-11-28T14:05:33.228Z,7.80
2018-11-28T14:08:01.674Z,7.80
2018-11-28T14:10:29.985Z,7.80
2018-11-28T14:12:58.396Z,7.90
2018-11-28T14:15:27.027Z,7.80
2018-11-28T14:18:03.838Z,7.80
2018-11-28T14:20:32.615Z,7.80
2018-11-28T14:23:01.033Z,7.70
2018-11-28T14:25:29.381Z,7.70
2018-11-28T14:27:57.901Z,7.70
2018-11-28T14:30:26.303Z,7.70
2018-11-28T14:32:55.434Z,7.60
2018-11-28T14:35:23.921Z,7.60
2018-11-28T14:37:52.457Z,7.60
2018-11-28T14:40:22.658Z,7.60
2018-11-28T14:42:52.269Z,7.60
2018-11-28T14:45:20.797Z,7.60
2018-11-28T14:47:49.802Z,7.50
2018-11-28T14:50:22.627Z,7.50
2018-11-28T14:52:51.497Z,7.50
2018-11-28T14:55:23.883Z,7.50
2018-11-28T14:57:52.273Z,7.50
2018-11-28T15:00:24.467Z,7.50
2018-11-28T15:02:56.121Z,7.50
2018-11-28T15:05:31.644Z,7.50
2018-11-28T15:08:03.418Z,7.50
2018-11-28T15:10:43.938Z,7.50
2018-11-28T15:13:12.386Z,7.50
2018-11-28T15:15:40.743Z,7.50
2018-11-28T15:18:09.543Z,7.60
2018-11-28T15:20:37.958Z,7.60
2018-11-28T15:23:06.594Z,7.60
2018-11-28T15:25:35.526Z,7.60
2018-11-28T15:28:03.986Z,7.60
2018-11-28T15:30:32.488Z,7.60
2018-11-28T15:33:01.046Z,7.70
2018-11-28T15:35:30.307Z,7.70
2018-11-28T15:37:59.250Z,7.70
2018-11-28T15:40:29.951Z,7.70
2018-11-28T15:42:58.457Z,7.70
2018-11-28T15:45:26.879Z,7.70
2018-11-28T15:47:55.883Z,7.70
2018-11-28T15:50:24.371Z,7.70
2018-11-28T15:52:53.111Z,7.70
2018-11-28T15:55:21.593Z,7.70
2018-11-28T15:57:49.930Z,7.70
2018-11-28T16:00:20.809Z,7.80
2018-11-28T16:02:49.170Z,7.70
2018-11-28T16:05:17.490Z,7.80
2018-11-28T16:07:45.799Z,7.70
2018-11-28T16:10:20.379Z,7.80
2018-11-28T16:12:48.946Z,7.80
2018-11-28T16:15:21.013Z,7.80
2018-11-28T16:17:49.362Z,7.80
2018-11-28T16:20:17.710Z,7.80
2018-11-28T16:22:46.175Z,7.80
2018-11-28T16:25:14.522Z,7.80
2018-11-28T16:27:43.572Z,7.90
2018-11-28T16:30:13.905Z,7.80
2018-11-28T16:32:43.114Z,7.80
2018-11-28T16:35:12.994Z,7.80
2018-11-28T16:37:41.907Z,7.90
2018-11-28T16:40:12.414Z,7.90
2018-11-28T16:42:40.734Z,7.90
2018-11-28T16:45:11.267Z,7.90
2018-11-28T16:47:39.682Z,7.90
2018-11-28T16:50:08.827Z,7.90
2018-11-28T16:52:37.578Z,7.90
2018-11-28T16:55:07.237Z,7.90
2018-11-28T16:57:35.574Z,7.90
2018-11-28T17:00:05.927Z,7.90
2018-11-28T17:02:34.233Z,7.90
2018-11-28T17:05:02.550Z,7.90
2018-11-28T17:07:31.177Z,7.90
2018-11-28T17:09:59.490Z,7.90
2018-11-28T17:12:27.795Z,7.90
2018-11-28T17:14:56.466Z,7.90
2018-11-28T17:17:25.770Z,7.90
2018-11-28T17:19:54.082Z,7.90
2018-11-28T17:22:22.719Z,7.90
2018-11-28T17:24:51.022Z,7.90
2018-11-28T17:27:19.347Z,8.00
2018-11-28T17:29:47.930Z,8.00
2018-11-28T17:32:16.242Z,8.10
2018-11-28T17:34:44.622Z,8.10
2018-11-28T17:37:13.083Z,8.10
2018-11-28T17:39:41.403Z,8.10
2018-11-28T17:42:09.713Z,8.10
2018-11-28T17:44:38.776Z,8.20
2018-11-28T17:47:07.111Z,8.20
2018-11-28T17:49:35.431Z,8.20
2018-11-28T17:52:04.334Z,8.20
2018-11-28T17:54:32.936Z,8.20
2018-11-28T17:57:01.242Z,8.30
2018-11-28T17:59:29.582Z,8.30
2018-11-28T18:01:57.914Z,8.40
2018-11-28T18:04:29.988Z,8.30
2018-11-28T18:06:55.161Z,8.40
2018-11-28T18:09:23.471Z,8.40
2018-11-28T18:11:51.798Z,8.40
2018-11-28T18:14:20.538Z,8.40
2018-11-28T18:16:48.890Z,8.40
2018-11-28T18:19:17.214Z,8.40
2018-11-28T18:21:45.584Z,8.40
2018-11-28T18:24:13.922Z,8.40
2018-11-28T18:26:42.262Z,8.40
2018-11-28T18:29:11.120Z,8.40
2018-11-28T18:31:39.562Z,8.40
2018-11-28T18:34:07.897Z,8.40
2018-11-28T18:36:36.341Z,8.40
2018-11-28T18:39:07.803Z,8.40
2018-11-28T18:41:36.410Z,8.40
2018-11-28T18:44:04.731Z,8.40
2018-11-28T18:46:33.130Z,8.40
2018-11-28T18:49:01.877Z,8.40
2018-11-28T18:51:30.240Z,8.40
2018-11-28T18:53:58.578Z,8.40
2018-11-28T18:56:26.914Z,8.40
2018-11-28T18:58:55.234Z,8.40
2018-11-28T19:01:23.575Z,8.40
2018-11-28T19:03:53.574Z,8.40
2018-11-28T19:06:21.930Z,8.40
2018-11-28T19:08:50.278Z,8.40
2018-11-28T19:11:18.723Z,8.40
2018-11-28T19:13:47.062Z,8.50
2018-11-28T19:16:15.382Z,8.50
2018-11-28T19:18:43.730Z,8.50
2018-11-28T19:21:12.146Z,8.50
2018-11-28T19:23:40.485Z,8.40
2018-11-28T19:26:09.347Z,8.40
2018-11-28T19:28:37.706Z,8.40
2018-11-28T19:31:06.199Z,8.40
2018-11-28T19:33:34.916Z,8.40
2018-11-28T19:36:03.238Z,8.40
2018-11-28T19:38:31.578Z,8.40
2018-11-28T19:41:02.826Z,8.40
2018-11-28T19:43:31.375Z,8.40
2018-11-28T19:46:00.175Z,8.40
2018-11-28T19:48:29.638Z,8.40
2018-11-28T19:50:57.955Z,8.40
2018-11-28T19:53:26.359Z,8.40
2018-11-28T19:55:54.807Z,8.40
2018-11-28T19:58:23.163Z,8.40
2018-11-28T20:00:51.496Z,8.40
2018-11-28T20:03:20.287Z,8.40
2018-11-28T20:05:48.631Z,8.40
2018-11-28T20:08:17.002Z,8.40
2018-11-28T20:10:45.792Z,8.50
2018-11-28T20:13:14.150Z,8.50
2018-11-28T20:15:44.436Z,8.50
2018-11-28T20:18:13.333Z,8.50
2018-11-28T20:20:41.932Z,8.50
2018-11-28T20:23:10.303Z,8.50
2018-11-28T20:25:39.385Z,8.50
2018-11-28T20:28:08.856Z,8.50
2018-11-28T20:30:40.846Z,8.60
2018-11-28T20:33:09.400Z,8.60
2018-11-28T20:35:38.387Z,8.60
2018-11-28T20:38:08.483Z,8.60
2018-11-28T20:40:37.069Z,8.70
2018-11-28T20:43:05.770Z,8.70
2018-11-28T20:45:34.518Z,8.70
2018-11-28T20:48:02.917Z,8.70
2018-11-28T20:50:32.831Z,8.70
2018-11-28T20:53:04.471Z,8.70
2018-11-28T20:55:32.783Z,8.70
2018-11-28T20:58:01.094Z,8.70
2018-11-28T21:00:29.796Z,8.70
2018-11-28T21:02:58.190Z,8.70
2018-11-28T21:05:27.084Z,8.70
2018-11-28T21:07:55.695Z,8.80
2018-11-28T21:10:29.426Z,8.80
2018-11-28T21:12:58.764Z,8.80
2018-11-28T21:15:27.339Z,8.80
2018-11-28T21:17:55.848Z,8.80
2018-11-28T21:20:24.631Z,8.90
2018-11-28T21:22:57.369Z,8.80
2018-11-28T21:25:26.966Z,8.80
2018-11-28T21:27:55.467Z,8.80
2018-11-28T21:30:23.969Z,8.80
2018-11-28T21:32:53.508Z,8.80
2018-11-28T21:35:25.137Z,8.80
2018-11-28T21:37:54.466Z,8.80
2018-11-28T21:40:22.988Z,8.80
2018-11-28T21:42:51.801Z,8.80
2018-11-28T21:45:21.831Z,8.90
2018-11-28T21:47:51.266Z,8.90
2018-11-28T21:50:20.110Z,8.90
2018-11-28T21:52:48.707Z,8.90
2018-11-28T21:55:19.226Z,8.90
2018-11-28T21:57:47.839Z,8.90
2018-11-28T22:00:18.128Z,8.90
2018-11-28T22:02:46.627Z,8.90
2018-11-28T22:05:15.868Z,8.90
2018-11-28T22:07:44.924Z,8.90
2018-11-28T22:10:21.411Z,8.90
2018-11-28T22:12:50.305Z,8.90
2018-11-28T22:15:19.094Z,8.90
2018-11-28T22:17:49.747Z,8.90
2018-11-28T22:20:18.276Z,9.00
2018-11-28T22:22:46.755Z,9.00
2018-11-28T22:25:16.270Z,9.00
2018-11-28T22:27:44.731Z,9.00
2018-11-28T22:30:15.046Z,9.00
2018-11-28T22:32:44.202Z,9.10
2018-11-28T22:35:12.700Z,9.10
2018-11-28T22:37:41.150Z,9.20
2018-11-28T22:40:11.736Z,9.20
2018-11-28T22:42:40.230Z,9.20
2018-11-28T22:45:13.255Z,9.20
2018-11-28T22:47:42.127Z,9.30
2018-11-28T22:50:11.686Z,9.30
2018-11-28T22:52:40.104Z,9.30
2018-11-28T22:55:09.847Z,9.30
2018-11-28T22:57:38.286Z,9.30
2018-11-28T23:00:14.455Z,9.40
2018-11-28T23:02:51.930Z,9.30
2018-11-28T23:05:21.059Z,9.40
2018-11-28T23:07:49.535Z,9.40
2018-11-28T23:10:18.019Z,9.40
2018-11-28T23:12:46.863Z,9.50
2018-11-28T23:15:15.383Z,9.50
2018-11-28T23:17:43.902Z,9.50
2018-11-28T23:20:12.613Z,9.50
2018-11-28T23:22:41.155Z,9.50
2018-11-28T23:25:10.913Z,9.60
2018-11-28T23:27:39.590Z,9.50
2018-11-28T23:30:11.864Z,9.50
2018-11-28T23:32:40.415Z,9.60
2018-11-28T23:35:09.827Z,9.60
2018-11-28T23:37:38.553Z,9.60
2018-11-28T23:40:11.732Z,9.60
2018-11-28T23:42:40.266Z,9.60
2018-11-28T23:45:09.851Z,9.60
2018-11-28T23:47:38.907Z,9.70
2018-11-28T23:50:10.969Z,9.70
2018-11-28T23:52:39.410Z,9.70
2018-11-28T23:55:14.144Z,9.70
2018-11-28T23:57:43.496Z,9.70
